sensor_id;sensor_type;location;lat;lon;timestamp;P1;durP1;ratioP1;P2;durP2;ratioP2
80961;SDS011;70424;55.154;14.722;2023-12-04T00:00:21;8.95;;;5.18;;
80961;SDS011;70424;55.154;14.722;2023-12-04T00:02:46;7.03;;;4.40;;
80961;SDS011;70424;55.154;14.722;2023-12-04T00:05:12;8.00;;;4.22;;
80961;SDS011;70424;55.154;14.722;2023-12-04T00:07:37;8.20;;;4.80;;
80961;SDS011;70424;55.154;14.722;2023-12-04T00:10:03;8.25;;;4.75;;
80961;SDS011;70424;55.154;14.722;2023-12-04T00:12:28;8.25;;;4.90;;
80961;SDS011;70424;55.154;14.722;2023-12-04T00:14:54;7.05;;;4.30;;
80961;SDS011;70424;55.154;14.722;2023-12-04T00:17:19;7.68;;;4.22;;
80961;SDS011;70424;55.154;14.722;2023-12-04T00:19:44;7.53;;;4.20;;
80961;SDS011;70424;55.154;14.722;2023-12-04T00:22:10;7.90;;;4.60;;
80961;SDS011;70424;55.154;14.722;2023-12-04T00:24:35;7.95;;;4.57;;
80961;SDS011;70424;55.154;14.722;2023-12-04T00:27:01;8.75;;;4.55;;
80961;SDS011;70424;55.154;14.722;2023-12-04T00:29:26;6.85;;;4.20;;
80961;SDS011;70424;55.154;14.722;2023-12-04T00:31:52;7.47;;;4.35;;
80961;SDS011;70424;55.154;14.722;2023-12-04T00:34:17;8.55;;;4.43;;
80961;SDS011;70424;55.154;14.722;2023-12-04T00:36:42;7.40;;;4.13;;
80961;SDS011;70424;55.154;14.722;2023-12-04T00:39:08;8.52;;;4.57;;
80961;SDS011;70424;55.154;14.722;2023-12-04T00:41:33;7.97;;;4.53;;
80961;SDS011;70424;55.154;14.722;2023-12-04T00:43:59;8.68;;;4.78;;
80961;SDS011;70424;55.154;14.722;2023-12-04T00:46:24;8.45;;;4.60;;
80961;SDS011;70424;55.154;14.722;2023-12-04T00:48:50;8.23;;;4.15;;
80961;SDS011;70424;55.154;14.722;2023-12-04T00:51:16;8.20;;;4.38;;
80961;SDS011;70424;55.154;14.722;2023-12-04T00:53:41;8.93;;;5.20;;
80961;SDS011;70424;55.154;14.722;2023-12-04T00:56:07;8.65;;;4.40;;
80961;SDS011;70424;55.154;14.722;2023-12-04T00:58:33;8.43;;;4.72;;
80961;SDS011;70424;55.154;14.722;2023-12-04T01:00:58;9.60;;;4.47;;
80961;SDS011;70424;55.154;14.722;2023-12-04T01:03:24;10.10;;;5.70;;
80961;SDS011;70424;55.154;14.722;2023-12-04T01:05:51;10.07;;;5.05;;
80961;SDS011;70424;55.154;14.722;2023-12-04T01:08:17;9.27;;;4.90;;
80961;SDS011;70424;55.154;14.722;2023-12-04T01:10:42;10.15;;;5.93;;
80961;SDS011;70424;55.154;14.722;2023-12-04T01:13:08;9.68;;;5.55;;
80961;SDS011;70424;55.154;14.722;2023-12-04T01:15:33;10.25;;;5.78;;
80961;SDS011;70424;55.154;14.722;2023-12-04T01:17:59;9.60;;;5.50;;
80961;SDS011;70424;55.154;14.722;2023-12-04T01:20:25;8.23;;;4.85;;
80961;SDS011;70424;55.154;14.722;2023-12-04T01:22:51;8.38;;;4.68;;
80961;SDS011;70424;55.154;14.722;2023-12-04T01:25:16;8.10;;;4.30;;
80961;SDS011;70424;55.154;14.722;2023-12-04T01:27:41;7.47;;;4.60;;
80961;SDS011;70424;55.154;14.722;2023-12-04T01:30:07;8.50;;;4.28;;
80961;SDS011;70424;55.154;14.722;2023-12-04T01:32:34;8.10;;;4.20;;
80961;SDS011;70424;55.154;14.722;2023-12-04T01:35:00;6.68;;;4.35;;
80961;SDS011;70424;55.154;14.722;2023-12-04T01:37:26;7.05;;;4.07;;
80961;SDS011;70424;55.154;14.722;2023-12-04T01:39:51;7.88;;;4.15;;
80961;SDS011;70424;55.154;14.722;2023-12-04T01:42:17;8.35;;;4.43;;
80961;SDS011;70424;55.154;14.722;2023-12-04T01:44:42;7.30;;;4.30;;
80961;SDS011;70424;55.154;14.722;2023-12-04T01:47:08;6.25;;;3.83;;
80961;SDS011;70424;55.154;14.722;2023-12-04T01:49:33;9.90;;;5.07;;
80961;SDS011;70424;55.154;14.722;2023-12-04T01:51:59;7.78;;;4.90;;
80961;SDS011;70424;55.154;14.722;2023-12-04T01:54:25;10.38;;;4.88;;
80961;SDS011;70424;55.154;14.722;2023-12-04T01:56:50;8.23;;;4.90;;
80961;SDS011;70424;55.154;14.722;2023-12-04T01:59:16;11.48;;;5.45;;
80961;SDS011;70424;55.154;14.722;2023-12-04T02:01:41;12.85;;;6.60;;
80961;SDS011;70424;55.154;14.722;2023-12-04T02:04:07;11.45;;;6.03;;
80961;SDS011;70424;55.154;14.722;2023-12-04T02:06:32;10.80;;;5.07;;
80961;SDS011;70424;55.154;14.722;2023-12-04T02:08:58;11.90;;;5.82;;
80961;SDS011;70424;55.154;14.722;2023-12-04T02:11:23;9.65;;;5.30;;
80961;SDS011;70424;55.154;14.722;2023-12-04T02:13:49;10.02;;;5.20;;
80961;SDS011;70424;55.154;14.722;2023-12-04T02:16:15;8.77;;;4.93;;
80961;SDS011;70424;55.154;14.722;2023-12-04T02:18:42;8.95;;;4.75;;
80961;SDS011;70424;55.154;14.722;2023-12-04T02:21:08;9.90;;;5.07;;
80961;SDS011;70424;55.154;14.722;2023-12-04T02:23:34;9.50;;;4.65;;
80961;SDS011;70424;55.154;14.722;2023-12-04T02:25:59;8.10;;;4.30;;
80961;SDS011;70424;55.154;14.722;2023-12-04T02:28:31;8.80;;;5.20;;
80961;SDS011;70424;55.154;14.722;2023-12-04T02:30:58;9.32;;;4.88;;
80961;SDS011;70424;55.154;14.722;2023-12-04T02:33:25;7.40;;;4.32;;
80961;SDS011;70424;55.154;14.722;2023-12-04T02:35:51;10.65;;;5.20;;
80961;SDS011;70424;55.154;14.722;2023-12-04T02:38:18;7.50;;;4.40;;
80961;SDS011;70424;55.154;14.722;2023-12-04T02:40:43;8.55;;;4.82;;
80961;SDS011;70424;55.154;14.722;2023-12-04T02:43:09;7.80;;;4.30;;
80961;SDS011;70424;55.154;14.722;2023-12-04T02:45:35;7.35;;;4.15;;
80961;SDS011;70424;55.154;14.722;2023-12-04T02:48:00;8.18;;;4.53;;
80961;SDS011;70424;55.154;14.722;2023-12-04T02:50:25;8.77;;;4.72;;
80961;SDS011;70424;55.154;14.722;2023-12-04T02:52:51;7.45;;;4.35;;
80961;SDS011;70424;55.154;14.722;2023-12-04T02:55:16;10.15;;;5.15;;
80961;SDS011;70424;55.154;14.722;2023-12-04T02:57:41;7.70;;;4.70;;
80961;SDS011;70424;55.154;14.722;2023-12-04T03:00:07;8.85;;;4.65;;
80961;SDS011;70424;55.154;14.722;2023-12-04T03:02:33;7.60;;;4.28;;
80961;SDS011;70424;55.154;14.722;2023-12-04T03:04:58;9.13;;;4.20;;
80961;SDS011;70424;55.154;14.722;2023-12-04T03:07:23;8.30;;;4.30;;
80961;SDS011;70424;55.154;14.722;2023-12-04T03:09:49;8.52;;;4.55;;
80961;SDS011;70424;55.154;14.722;2023-12-04T03:12:16;8.65;;;4.47;;
80961;SDS011;70424;55.154;14.722;2023-12-04T03:14:41;7.25;;;4.38;;
80961;SDS011;70424;55.154;14.722;2023-12-04T03:17:07;6.82;;;4.00;;
80961;SDS011;70424;55.154;14.722;2023-12-04T03:19:32;8.85;;;4.97;;
80961;SDS011;70424;55.154;14.722;2023-12-04T03:21:57;7.95;;;4.35;;
80961;SDS011;70424;55.154;14.722;2023-12-04T03:24:23;6.60;;;4.32;;
80961;SDS011;70424;55.154;14.722;2023-12-04T03:26:48;7.30;;;4.53;;
80961;SDS011;70424;55.154;14.722;2023-12-04T03:29:13;7.13;;;3.95;;
80961;SDS011;70424;55.154;14.722;2023-12-04T03:31:39;8.77;;;4.47;;
80961;SDS011;70424;55.154;14.722;2023-12-04T03:34:04;9.10;;;4.65;;
80961;SDS011;70424;55.154;14.722;2023-12-04T03:36:29;10.38;;;5.78;;
80961;SDS011;70424;55.154;14.722;2023-12-04T03:38:55;9.70;;;6.28;;
80961;SDS011;70424;55.154;14.722;2023-12-04T03:41:20;11.32;;;6.18;;
80961;SDS011;70424;55.154;14.722;2023-12-04T03:43:47;14.13;;;6.05;;
80961;SDS011;70424;55.154;14.722;2023-12-04T03:46:12;10.30;;;5.38;;
80961;SDS011;70424;55.154;14.722;2023-12-04T03:48:38;10.23;;;5.18;;
80961;SDS011;70424;55.154;14.722;2023-12-04T03:51:04;8.13;;;3.63;;
80961;SDS011;70424;55.154;14.722;2023-12-04T03:53:30;7.20;;;4.00;;
80961;SDS011;70424;55.154;14.722;2023-12-04T03:55:57;8.75;;;4.47;;
80961;SDS011;70424;55.154;14.722;2023-12-04T04:00:48;8.57;;;4.47;;
80961;SDS011;70424;55.154;14.722;2023-12-04T04:03:14;7.78;;;4.15;;
80961;SDS011;70424;55.154;14.722;2023-12-04T04:05:40;7.63;;;4.13;;
80961;SDS011;70424;55.154;14.722;2023-12-04T04:08:05;7.50;;;4.20;;
80961;SDS011;70424;55.154;14.722;2023-12-04T04:10:32;8.90;;;4.68;;
80961;SDS011;70424;55.154;14.722;2023-12-04T04:12:58;8.00;;;4.63;;
80961;SDS011;70424;55.154;14.722;2023-12-04T04:15:23;6.75;;;4.00;;
80961;SDS011;70424;55.154;14.722;2023-12-04T04:17:49;8.27;;;4.60;;
80961;SDS011;70424;55.154;14.722;2023-12-04T04:20:14;8.50;;;4.22;;
80961;SDS011;70424;55.154;14.722;2023-12-04T04:22:40;6.43;;;3.75;;
80961;SDS011;70424;55.154;14.722;2023-12-04T04:25:09;8.02;;;4.10;;
80961;SDS011;70424;55.154;14.722;2023-12-04T04:27:35;8.48;;;4.13;;
80961;SDS011;70424;55.154;14.722;2023-12-04T04:30:01;7.63;;;4.40;;
80961;SDS011;70424;55.154;14.722;2023-12-04T04:32:26;6.95;;;4.05;;
80961;SDS011;70424;55.154;14.722;2023-12-04T04:34:52;7.03;;;4.05;;
80961;SDS011;70424;55.154;14.722;2023-12-04T04:37:17;7.13;;;4.05;;
80961;SDS011;70424;55.154;14.722;2023-12-04T04:39:44;6.63;;;3.97;;
80961;SDS011;70424;55.154;14.722;2023-12-04T04:42:09;6.88;;;3.90;;
80961;SDS011;70424;55.154;14.722;2023-12-04T04:44:34;7.10;;;4.18;;
80961;SDS011;70424;55.154;14.722;2023-12-04T04:47:00;6.40;;;3.60;;
80961;SDS011;70424;55.154;14.722;2023-12-04T04:49:25;6.93;;;4.32;;
80961;SDS011;70424;55.154;14.722;2023-12-04T04:51:51;10.10;;;5.60;;
80961;SDS011;70424;55.154;14.722;2023-12-04T04:54:16;7.28;;;4.72;;
80961;SDS011;70424;55.154;14.722;2023-12-04T04:56:41;7.75;;;4.80;;
80961;SDS011;70424;55.154;14.722;2023-12-04T04:59:07;7.90;;;5.10;;
80961;SDS011;70424;55.154;14.722;2023-12-04T05:01:32;7.22;;;4.25;;
80961;SDS011;70424;55.154;14.722;2023-12-04T05:03:58;7.40;;;4.07;;
80961;SDS011;70424;55.154;14.722;2023-12-04T05:06:23;8.05;;;4.13;;
80961;SDS011;70424;55.154;14.722;2023-12-04T05:08:49;7.40;;;4.10;;
80961;SDS011;70424;55.154;14.722;2023-12-04T05:11:17;6.68;;;3.80;;
80961;SDS011;70424;55.154;14.722;2023-12-04T05:13:42;7.20;;;3.83;;
80961;SDS011;70424;55.154;14.722;2023-12-04T05:16:09;7.68;;;3.83;;
80961;SDS011;70424;55.154;14.722;2023-12-04T05:18:35;8.05;;;4.20;;
80961;SDS011;70424;55.154;14.722;2023-12-04T05:21:00;6.97;;;4.32;;
80961;SDS011;70424;55.154;14.722;2023-12-04T05:23:25;7.70;;;4.35;;
80961;SDS011;70424;55.154;14.722;2023-12-04T05:25:51;7.40;;;4.25;;
80961;SDS011;70424;55.154;14.722;2023-12-04T05:28:16;10.85;;;5.00;;
80961;SDS011;70424;55.154;14.722;2023-12-04T05:30:42;10.95;;;5.30;;
80961;SDS011;70424;55.154;14.722;2023-12-04T05:33:08;11.57;;;6.18;;
80961;SDS011;70424;55.154;14.722;2023-12-04T05:35:34;9.32;;;5.35;;
80961;SDS011;70424;55.154;14.722;2023-12-04T05:38:00;8.95;;;5.22;;
80961;SDS011;70424;55.154;14.722;2023-12-04T05:40:25;10.02;;;4.93;;
80961;SDS011;70424;55.154;14.722;2023-12-04T05:42:51;8.65;;;4.57;;
80961;SDS011;70424;55.154;14.722;2023-12-04T05:45:16;8.27;;;4.72;;
80961;SDS011;70424;55.154;14.722;2023-12-04T05:47:41;8.90;;;4.57;;
80961;SDS011;70424;55.154;14.722;2023-12-04T05:50:07;9.48;;;4.95;;
80961;SDS011;70424;55.154;14.722;2023-12-04T05:52:33;7.68;;;4.60;;
80961;SDS011;70424;55.154;14.722;2023-12-04T05:54:58;8.57;;;4.65;;
80961;SDS011;70424;55.154;14.722;2023-12-04T05:57:23;8.23;;;4.88;;
80961;SDS011;70424;55.154;14.722;2023-12-04T05:59:49;9.15;;;4.30;;
80961;SDS011;70424;55.154;14.722;2023-12-04T06:02:15;7.70;;;4.90;;
80961;SDS011;70424;55.154;14.722;2023-12-04T06:04:41;8.02;;;4.63;;
80961;SDS011;70424;55.154;14.722;2023-12-04T06:07:06;9.38;;;4.65;;
80961;SDS011;70424;55.154;14.722;2023-12-04T06:09:32;9.13;;;4.90;;
80961;SDS011;70424;55.154;14.722;2023-12-04T06:11:57;9.48;;;4.97;;
80961;SDS011;70424;55.154;14.722;2023-12-04T06:14:23;8.13;;;4.97;;
80961;SDS011;70424;55.154;14.722;2023-12-04T06:16:48;9.23;;;5.45;;
80961;SDS011;70424;55.154;14.722;2023-12-04T06:19:14;8.85;;;4.90;;
80961;SDS011;70424;55.154;14.722;2023-12-04T06:21:39;10.57;;;5.28;;
80961;SDS011;70424;55.154;14.722;2023-12-04T06:24:05;9.80;;;5.65;;
80961;SDS011;70424;55.154;14.722;2023-12-04T06:26:31;11.27;;;6.25;;
80961;SDS011;70424;55.154;14.722;2023-12-04T06:28:58;9.63;;;4.78;;
80961;SDS011;70424;55.154;14.722;2023-12-04T06:31:23;10.07;;;4.82;;
80961;SDS011;70424;55.154;14.722;2023-12-04T06:33:49;8.43;;;4.88;;
80961;SDS011;70424;55.154;14.722;2023-12-04T06:36:15;8.32;;;4.32;;
80961;SDS011;70424;55.154;14.722;2023-12-04T06:38:42;8.15;;;4.72;;
80961;SDS011;70424;55.154;14.722;2023-12-04T06:41:12;9.20;;;4.88;;
80961;SDS011;70424;55.154;14.722;2023-12-04T06:43:38;8.25;;;4.82;;
80961;SDS011;70424;55.154;14.722;2023-12-04T06:46:03;32.75;;;17.45;;
80961;SDS011;70424;55.154;14.722;2023-12-04T06:48:30;23.58;;;12.18;;
80961;SDS011;70424;55.154;14.722;2023-12-04T06:50:56;12.40;;;6.82;;
80961;SDS011;70424;55.154;14.722;2023-12-04T06:53:21;11.85;;;6.57;;
80961;SDS011;70424;55.154;14.722;2023-12-04T06:55:47;10.30;;;5.72;;
80961;SDS011;70424;55.154;14.722;2023-12-04T06:58:12;11.82;;;5.78;;
80961;SDS011;70424;55.154;14.722;2023-12-04T07:00:38;10.45;;;5.95;;
80961;SDS011;70424;55.154;14.722;2023-12-04T07:03:03;8.95;;;5.13;;
80961;SDS011;70424;55.154;14.722;2023-12-04T07:05:29;10.70;;;5.53;;
80961;SDS011;70424;55.154;14.722;2023-12-04T07:07:54;9.75;;;5.85;;
80961;SDS011;70424;55.154;14.722;2023-12-04T07:10:19;12.60;;;6.15;;
80961;SDS011;70424;55.154;14.722;2023-12-04T07:12:45;9.95;;;5.70;;
80961;SDS011;70424;55.154;14.722;2023-12-04T07:15:10;13.05;;;5.97;;
80961;SDS011;70424;55.154;14.722;2023-12-04T07:17:37;9.27;;;5.85;;
80961;SDS011;70424;55.154;14.722;2023-12-04T07:20:03;11.18;;;5.90;;
80961;SDS011;70424;55.154;14.722;2023-12-04T07:22:31;11.45;;;6.03;;
80961;SDS011;70424;55.154;14.722;2023-12-04T07:24:57;10.85;;;6.07;;
80961;SDS011;70424;55.154;14.722;2023-12-04T07:27:22;13.05;;;6.43;;
80961;SDS011;70424;55.154;14.722;2023-12-04T07:29:48;12.07;;;6.40;;
80961;SDS011;70424;55.154;14.722;2023-12-04T07:32:15;12.70;;;6.57;;
80961;SDS011;70424;55.154;14.722;2023-12-04T07:34:40;12.55;;;6.40;;
80961;SDS011;70424;55.154;14.722;2023-12-04T07:37:06;13.93;;;6.75;;
80961;SDS011;70424;55.154;14.722;2023-12-04T07:39:32;11.55;;;6.60;;
80961;SDS011;70424;55.154;14.722;2023-12-04T07:41:57;10.02;;;5.57;;
80961;SDS011;70424;55.154;14.722;2023-12-04T07:44:23;10.93;;;6.13;;
80961;SDS011;70424;55.154;14.722;2023-12-04T07:46:48;11.82;;;6.75;;
80961;SDS011;70424;55.154;14.722;2023-12-04T07:49:13;11.65;;;6.70;;
80961;SDS011;70424;55.154;14.722;2023-12-04T07:51:39;12.05;;;6.70;;
80961;SDS011;70424;55.154;14.722;2023-12-04T07:54:04;12.18;;;6.07;;
80961;SDS011;70424;55.154;14.722;2023-12-04T07:56:30;12.32;;;6.65;;
80961;SDS011;70424;55.154;14.722;2023-12-04T07:58:55;12.57;;;6.70;;
80961;SDS011;70424;55.154;14.722;2023-12-04T08:01:21;10.65;;;6.35;;
80961;SDS011;70424;55.154;14.722;2023-12-04T08:03:48;11.83;;;7.10;;
80961;SDS011;70424;55.154;14.722;2023-12-04T08:06:13;11.73;;;7.43;;
80961;SDS011;70424;55.154;14.722;2023-12-04T08:08:38;14.15;;;7.25;;
80961;SDS011;70424;55.154;14.722;2023-12-04T08:11:04;13.98;;;7.47;;
80961;SDS011;70424;55.154;14.722;2023-12-04T08:13:29;14.75;;;7.20;;
80961;SDS011;70424;55.154;14.722;2023-12-04T08:15:55;10.88;;;6.30;;
80961;SDS011;70424;55.154;14.722;2023-12-04T08:18:21;13.60;;;6.72;;
80961;SDS011;70424;55.154;14.722;2023-12-04T08:20:46;13.32;;;6.82;;
80961;SDS011;70424;55.154;14.722;2023-12-04T08:23:11;10.65;;;6.03;;
80961;SDS011;70424;55.154;14.722;2023-12-04T08:25:37;12.95;;;6.63;;
80961;SDS011;70424;55.154;14.722;2023-12-04T08:28:03;13.85;;;7.80;;
80961;SDS011;70424;55.154;14.722;2023-12-04T08:30:28;15.95;;;7.68;;
80961;SDS011;70424;55.154;14.722;2023-12-04T08:32:54;12.35;;;7.05;;
80961;SDS011;70424;55.154;14.722;2023-12-04T08:35:19;10.98;;;6.65;;
80961;SDS011;70424;55.154;14.722;2023-12-04T08:37:45;10.65;;;5.88;;
80961;SDS011;70424;55.154;14.722;2023-12-04T08:40:10;12.35;;;6.78;;
80961;SDS011;70424;55.154;14.722;2023-12-04T08:42:37;10.52;;;6.22;;
80961;SDS011;70424;55.154;14.722;2023-12-04T08:45:03;13.43;;;6.50;;
80961;SDS011;70424;55.154;14.722;2023-12-04T08:47:30;11.73;;;6.72;;
80961;SDS011;70424;55.154;14.722;2023-12-04T08:49:56;11.15;;;6.35;;
80961;SDS011;70424;55.154;14.722;2023-12-04T08:52:22;11.52;;;6.63;;
80961;SDS011;70424;55.154;14.722;2023-12-04T08:54:47;13.95;;;6.82;;
80961;SDS011;70424;55.154;14.722;2023-12-04T08:57:13;12.60;;;6.90;;
80961;SDS011;70424;55.154;14.722;2023-12-04T08:59:38;12.23;;;6.05;;
80961;SDS011;70424;55.154;14.722;2023-12-04T09:02:04;13.77;;;7.05;;
80961;SDS011;70424;55.154;14.722;2023-12-04T09:04:32;12.02;;;6.75;;
80961;SDS011;70424;55.154;14.722;2023-12-04T09:06:58;14.05;;;7.93;;
80961;SDS011;70424;55.154;14.722;2023-12-04T09:09:24;12.40;;;6.95;;
80961;SDS011;70424;55.154;14.722;2023-12-04T09:11:49;13.80;;;7.32;;
80961;SDS011;70424;55.154;14.722;2023-12-04T09:14:14;13.55;;;7.90;;
80961;SDS011;70424;55.154;14.722;2023-12-04T09:16:41;14.98;;;7.50;;
80961;SDS011;70424;55.154;14.722;2023-12-04T09:19:06;27.15;;;13.32;;
80961;SDS011;70424;55.154;14.722;2023-12-04T09:21:31;26.30;;;13.07;;
80961;SDS011;70424;55.154;14.722;2023-12-04T09:23:57;27.80;;;14.43;;
80961;SDS011;70424;55.154;14.722;2023-12-04T09:26:22;22.15;;;11.73;;
80961;SDS011;70424;55.154;14.722;2023-12-04T09:28:48;15.43;;;8.80;;
80961;SDS011;70424;55.154;14.722;2023-12-04T09:31:13;13.27;;;7.97;;
80961;SDS011;70424;55.154;14.722;2023-12-04T09:33:39;15.00;;;7.95;;
80961;SDS011;70424;55.154;14.722;2023-12-04T09:36:04;14.82;;;8.18;;
80961;SDS011;70424;55.154;14.722;2023-12-04T09:38:30;14.02;;;7.80;;
80961;SDS011;70424;55.154;14.722;2023-12-04T09:40:57;13.07;;;8.30;;
80961;SDS011;70424;55.154;14.722;2023-12-04T09:43:26;13.13;;;7.55;;
80961;SDS011;70424;55.154;14.722;2023-12-04T09:45:54;13.65;;;7.35;;
80961;SDS011;70424;55.154;14.722;2023-12-04T09:48:19;14.43;;;8.18;;
80961;SDS011;70424;55.154;14.722;2023-12-04T09:50:46;13.55;;;8.23;;
80961;SDS011;70424;55.154;14.722;2023-12-04T09:53:12;14.02;;;8.20;;
80961;SDS011;70424;55.154;14.722;2023-12-04T09:55:38;15.20;;;7.75;;
80961;SDS011;70424;55.154;14.722;2023-12-04T09:58:05;12.98;;;7.78;;
80961;SDS011;70424;55.154;14.722;2023-12-04T10:00:30;14.30;;;8.63;;
80961;SDS011;70424;55.154;14.722;2023-12-04T10:02:57;17.38;;;8.75;;
80961;SDS011;70424;55.154;14.722;2023-12-04T10:05:24;16.63;;;9.07;;
80961;SDS011;70424;55.154;14.722;2023-12-04T10:07:50;18.02;;;10.35;;
80961;SDS011;70424;55.154;14.722;2023-12-04T10:10:15;20.15;;;11.02;;
80961;SDS011;70424;55.154;14.722;2023-12-04T10:12:40;17.80;;;9.55;;
80961;SDS011;70424;55.154;14.722;2023-12-04T10:15:09;17.30;;;9.70;;
80961;SDS011;70424;55.154;14.722;2023-12-04T10:17:36;16.88;;;9.10;;
80961;SDS011;70424;55.154;14.722;2023-12-04T10:25:25;15.18;;;8.70;;
80961;SDS011;70424;55.154;14.722;2023-12-04T10:27:54;15.10;;;8.15;;
80961;SDS011;70424;55.154;14.722;2023-12-04T10:30:23;14.75;;;8.18;;
80961;SDS011;70424;55.154;14.722;2023-12-04T10:32:48;14.07;;;7.88;;
80961;SDS011;70424;55.154;14.722;2023-12-04T10:35:14;15.18;;;8.30;;
80961;SDS011;70424;55.154;14.722;2023-12-04T10:37:39;12.75;;;7.18;;
80961;SDS011;70424;55.154;14.722;2023-12-04T10:40:06;12.63;;;7.50;;
80961;SDS011;70424;55.154;14.722;2023-12-04T10:42:33;14.70;;;8.27;;
80961;SDS011;70424;55.154;14.722;2023-12-04T10:44:59;14.70;;;8.50;;
80961;SDS011;70424;55.154;14.722;2023-12-04T10:47:26;14.35;;;7.60;;
80961;SDS011;70424;55.154;14.722;2023-12-04T10:49:53;16.88;;;9.32;;
80961;SDS011;70424;55.154;14.722;2023-12-04T10:52:18;15.80;;;8.52;;
80961;SDS011;70424;55.154;14.722;2023-12-04T10:54:45;13.68;;;7.90;;
80961;SDS011;70424;55.154;14.722;2023-12-04T10:57:20;11.57;;;7.22;;
80961;SDS011;70424;55.154;14.722;2023-12-04T10:59:50;12.23;;;7.20;;
80961;SDS011;70424;55.154;14.722;2023-12-04T11:02:20;14.07;;;8.20;;
80961;SDS011;70424;55.154;14.722;2023-12-04T11:04:48;12.85;;;8.20;;
80961;SDS011;70424;55.154;14.722;2023-12-04T11:07:16;12.85;;;8.05;;
80961;SDS011;70424;55.154;14.722;2023-12-04T11:09:43;15.52;;;9.07;;
80961;SDS011;70424;55.154;14.722;2023-12-04T11:12:11;13.40;;;8.20;;
80961;SDS011;70424;55.154;14.722;2023-12-04T11:14:42;14.35;;;9.32;;
80961;SDS011;70424;55.154;14.722;2023-12-04T11:17:12;16.95;;;9.35;;
80961;SDS011;70424;55.154;14.722;2023-12-04T11:22:21;13.38;;;7.75;;
80961;SDS011;70424;55.154;14.722;2023-12-04T11:24:47;14.68;;;7.35;;
80961;SDS011;70424;55.154;14.722;2023-12-04T11:27:19;14.70;;;7.90;;
80961;SDS011;70424;55.154;14.722;2023-12-04T11:29:45;14.60;;;8.00;;
80961;SDS011;70424;55.154;14.722;2023-12-04T11:32:13;15.13;;;8.15;;
80961;SDS011;70424;55.154;14.722;2023-12-04T11:34:56;14.50;;;7.70;;
80961;SDS011;70424;55.154;14.722;2023-12-04T11:37:25;13.48;;;7.65;;
80961;SDS011;70424;55.154;14.722;2023-12-04T11:39:51;13.82;;;7.55;;
80961;SDS011;70424;55.154;14.722;2023-12-04T11:42:18;12.20;;;6.85;;
80961;SDS011;70424;55.154;14.722;2023-12-04T11:44:49;13.30;;;7.00;;
80961;SDS011;70424;55.154;14.722;2023-12-04T11:47:15;12.82;;;7.25;;
80961;SDS011;70424;55.154;14.722;2023-12-04T11:49:40;14.57;;;7.05;;
80961;SDS011;70424;55.154;14.722;2023-12-04T11:52:06;14.15;;;8.52;;
80961;SDS011;70424;55.154;14.722;2023-12-04T11:57:22;13.18;;;8.00;;
80961;SDS011;70424;55.154;14.722;2023-12-04T11:59:50;12.23;;;7.85;;
80961;SDS011;70424;55.154;14.722;2023-12-04T12:02:15;12.00;;;6.88;;
80961;SDS011;70424;55.154;14.722;2023-12-04T12:04:41;14.30;;;6.90;;
80961;SDS011;70424;55.154;14.722;2023-12-04T12:07:07;12.73;;;7.60;;
80961;SDS011;70424;55.154;14.722;2023-12-04T12:09:33;15.00;;;7.68;;
80961;SDS011;70424;55.154;14.722;2023-12-04T12:12:00;11.90;;;7.00;;
80961;SDS011;70424;55.154;14.722;2023-12-04T12:14:26;12.43;;;6.97;;
80961;SDS011;70424;55.154;14.722;2023-12-04T12:16:54;13.07;;;7.00;;
80961;SDS011;70424;55.154;14.722;2023-12-04T12:19:20;13.23;;;7.85;;
80961;SDS011;70424;55.154;14.722;2023-12-04T12:21:46;11.18;;;7.13;;
80961;SDS011;70424;55.154;14.722;2023-12-04T12:24:14;11.15;;;6.47;;
80961;SDS011;70424;55.154;14.722;2023-12-04T12:26:39;12.82;;;7.38;;
80961;SDS011;70424;55.154;14.722;2023-12-04T12:29:05;12.82;;;6.93;;
80961;SDS011;70424;55.154;14.722;2023-12-04T12:31:31;12.20;;;7.10;;
80961;SDS011;70424;55.154;14.722;2023-12-04T12:33:57;11.10;;;6.70;;
80961;SDS011;70424;55.154;14.722;2023-12-04T12:36:22;12.95;;;7.15;;
80961;SDS011;70424;55.154;14.722;2023-12-04T12:38:48;13.57;;;8.05;;
80961;SDS011;70424;55.154;14.722;2023-12-04T12:41:18;13.77;;;8.02;;
80961;SDS011;70424;55.154;14.722;2023-12-04T12:43:43;15.30;;;8.38;;
80961;SDS011;70424;55.154;14.722;2023-12-04T12:46:09;13.02;;;7.45;;
80961;SDS011;70424;55.154;14.722;2023-12-04T12:48:35;13.85;;;8.07;;
80961;SDS011;70424;55.154;14.722;2023-12-04T12:51:02;13.57;;;7.75;;
80961;SDS011;70424;55.154;14.722;2023-12-04T12:53:28;13.10;;;7.45;;
80961;SDS011;70424;55.154;14.722;2023-12-04T12:55:53;14.75;;;7.72;;
80961;SDS011;70424;55.154;14.722;2023-12-04T12:58:19;15.52;;;8.75;;
80961;SDS011;70424;55.154;14.722;2023-12-04T13:00:46;15.68;;;8.43;;
80961;SDS011;70424;55.154;14.722;2023-12-04T13:03:15;15.32;;;7.80;;
80961;SDS011;70424;55.154;14.722;2023-12-04T13:05:41;12.68;;;7.22;;
80961;SDS011;70424;55.154;14.722;2023-12-04T13:08:07;12.43;;;7.43;;
80961;SDS011;70424;55.154;14.722;2023-12-04T13:10:32;15.25;;;8.32;;
80961;SDS011;70424;55.154;14.722;2023-12-04T13:12:57;15.45;;;8.15;;
80961;SDS011;70424;55.154;14.722;2023-12-04T13:15:24;16.80;;;7.97;;
80961;SDS011;70424;55.154;14.722;2023-12-04T13:17:50;15.50;;;8.07;;
80961;SDS011;70424;55.154;14.722;2023-12-04T13:20:16;15.00;;;7.78;;
80961;SDS011;70424;55.154;14.722;2023-12-04T13:22:42;18.20;;;7.93;;
80961;SDS011;70424;55.154;14.722;2023-12-04T13:25:07;17.45;;;7.18;;
80961;SDS011;70424;55.154;14.722;2023-12-04T13:27:35;18.77;;;8.50;;
80961;SDS011;70424;55.154;14.722;2023-12-04T13:30:04;17.27;;;8.13;;
80961;SDS011;70424;55.154;14.722;2023-12-04T13:32:36;17.70;;;7.65;;
80961;SDS011;70424;55.154;14.722;2023-12-04T13:35:03;21.42;;;8.35;;
80961;SDS011;70424;55.154;14.722;2023-12-04T13:37:36;21.45;;;8.98;;
80961;SDS011;70424;55.154;14.722;2023-12-04T13:40:03;20.70;;;9.23;;
80961;SDS011;70424;55.154;14.722;2023-12-04T13:42:32;18.50;;;7.88;;
80961;SDS011;70424;55.154;14.722;2023-12-04T13:45:16;20.83;;;8.18;;
80961;SDS011;70424;55.154;14.722;2023-12-04T13:47:41;22.20;;;9.20;;
80961;SDS011;70424;55.154;14.722;2023-12-04T13:50:08;18.10;;;8.07;;
80961;SDS011;70424;55.154;14.722;2023-12-04T13:52:34;20.35;;;7.53;;
80961;SDS011;70424;55.154;14.722;2023-12-04T13:55:00;20.65;;;8.95;;
80961;SDS011;70424;55.154;14.722;2023-12-04T13:57:26;24.75;;;8.82;;
80961;SDS011;70424;55.154;14.722;2023-12-04T13:59:58;23.63;;;9.23;;
80961;SDS011;70424;55.154;14.722;2023-12-04T14:02:24;23.25;;;9.43;;
80961;SDS011;70424;55.154;14.722;2023-12-04T14:04:50;24.92;;;8.15;;
80961;SDS011;70424;55.154;14.722;2023-12-04T14:07:15;24.10;;;8.73;;
80961;SDS011;70424;55.154;14.722;2023-12-04T14:09:42;23.67;;;7.93;;
80961;SDS011;70424;55.154;14.722;2023-12-04T14:12:09;25.67;;;9.33;;
80961;SDS011;70424;55.154;14.722;2023-12-04T14:14:35;26.13;;;8.93;;
80961;SDS011;70424;55.154;14.722;2023-12-04T14:17:02;23.73;;;8.73;;
80961;SDS011;70424;55.154;14.722;2023-12-04T14:19:29;25.77;;;10.10;;
80961;SDS011;70424;55.154;14.722;2023-12-04T14:21:55;27.45;;;9.73;;
80961;SDS011;70424;55.154;14.722;2023-12-04T14:24:20;29.05;;;9.70;;
80961;SDS011;70424;55.154;14.722;2023-12-04T14:26:47;30.70;;;10.13;;
80961;SDS011;70424;55.154;14.722;2023-12-04T14:29:13;28.15;;;9.40;;
80961;SDS011;70424;55.154;14.722;2023-12-04T14:31:38;25.15;;;9.40;;